PDT,Max TemperatureF,Mean TemperatureF,Min TemperatureF,Max Dew PointF,MeanDew PointF,Min DewpointF,Max Humidity, Mean Humidity, Min Humidity, Max Sea Level PressureIn, Mean Sea Level PressureIn, Min Sea Level PressureIn, Max VisibilityMiles, Mean VisibilityMiles, Min VisibilityMiles, Max Wind SpeedMPH, Mean Wind SpeedMPH, Max Gust SpeedMPH,PrecipitationIn, CloudCover, Events, WindDirDegrees
2013-9-1,75,65,55,64,58,55,100,82,50,29.96,29.90,29.84,10,10,4,18,9,29,0.00,5,,203
2013-9-2,73,66,59,64,61,54,100,81,64,29.97,29.92,29.89,10,10,9,18,8,23,0.01,4,,226
2013-9-3,73,64,55,63,59,55,100,83,57,30.04,30.00,29.96,10,10,5,16,7,20,0.00,3,,196
2013-9-4,70,65,59,63,60,57,100,92,70,30.08,30.06,30.02,10,8,0,13,4,,0.00,4,,236
2013-9-5,64,62,59,63,60,57,100,97,87,30.16,30.08,30.03,10,9,2,8,3,,0.45,8,Thunderstorm,276
2013-9-6,70,65,59,63,61,57,100,89,70,30.20,30.16,30.10,10,10,7,16,7,22,0.00,4,,22
2013-9-7,70,62,54,61,59,54,100,91,73,30.09,30.01,29.96,10,10,5,23,9,28,0.00,0,,3
2013-9-8,73,65,57,63,59,57,100,94,78,30.05,30.01,29.96,10,6,0,24,11,31,0.00,4,,3
2013-9-9,66,61,55,61,58,55,100,95,81,30.01,29.96,29.89,10,6,0,28,13,35,0.00,4,,358
2013-9-10,66,60,54,61,56,54,100,90,78,29.90,29.83,29.74,10,7,0,22,8,28,0.00,4,,334
2013-9-11,68,62,55,61,58,55,100,92,78,30.01,29.96,29.88,10,8,2,15,5,22,0.00,8,,242
2013-9-12,66,63,59,61,60,59,100,93,84,30.02,30.01,29.99,10,9,4,7,4,,0.00,8,,293
2013-9-13,66,63,59,61,59,57,100,91,84,30.01,29.95,29.88,10,9,5,17,8,22,0.00,8,,16
2013-9-14,64,61,57,61,59,57,100,97,93,29.89,29.84,29.81,10,8,2,9,4,,0.00,8,,332
2013-9-15,64,61,57,61,58,57,100,93,84,29.95,29.86,29.80,10,9,4,15,5,21,0.01,8,,202
2013-9-16,70,65,59,61,58,57,100,86,68,30.01,29.97,29.91,10,10,10,10,6,,0.00,5,,18
2013-9-17,64,61,57,59,58,55,100,91,78,30.08,29.98,29.89,10,10,2,16,7,,0.09,5,,306
2013-9-18,66,60,54,57,56,52,100,88,68,30.11,30.06,29.98,10,10,8,18,8,22,0.00,1,,63
2013-9-19,66,58,50,59,54,50,100,89,68,29.98,29.90,29.83,10,10,8,12,5,,0.00,0,,168
2013-9-20,63,59,54,61,56,52,100,96,78,29.82,29.73,29.69,10,9,2,10,7,28,0.55,4,,163
2013-9-21,64,60,55,57,56,54,100,90,78,29.87,29.76,29.70,10,10,1,14,8,18,0.64,6,Thunderstorm,185
2013-9-22,64,60,55,59,56,54,100,92,72,29.95,29.86,29.77,10,10,2,24,11,37,0.11,7,,182
2013-9-23,66,61,55,57,57,54,100,91,73,30.04,30.01,29.94,10,10,7,14,6,18,0.01,6,,178
2013-9-24,64,57,50,57,54,48,100,89,67,30.02,29.98,29.94,10,10,5,15,8,20,0.23,7,,245
2013-9-25,61,54,46,52,49,46,100,89,64,30.09,30.00,29.94,10,10,9,13,7,16,0.33,4,,145
2013-9-26,63,54,45,55,50,45,100,89,67,30.22,30.14,30.09,10,10,2,13,7,,0.00,2,,150
2013-9-27,63,55,46,61,52,46,100,95,72,30.22,30.16,30.03,10,9,2,12,9,18,0.25,5,,162
2013-9-28,64,59,54,61,59,54,100,97,84,30.02,29.83,29.67,10,8,2,31,16,46,1.51,8,,200
2013-9-29,63,59,55,59,56,54,100,97,93,29.80,29.73,29.59,10,8,3,29,16,45,1.75,8,Thunderstorm,203
2013-9-30,64,58,51,61,53,50,100,82,63,30.06,29.94,29.78,10,10,7,16,9,22,0.01,8,,194